Time;durP1;ratioP1;P1;durP2;ratioP2;P2;SDS_P1;SDS_P2;PMS_P1;PMS_P2;Temp;Humidity;BMP_temperature;BMP_pressure;BME280_temperature;BME280_humidity;BME280_pressure;Samples;Min_cycle;Max_cycle;Signal;HPM_P1;HPM_P2
2023/04/25 00:02:03;;;;;;;24.17;4.55;;;6.50;99.90;;;;;;5058498;28;20032;-75
2023/04/25 00:04:29;;;;;;;14.70;3.78;;;6.40;99.90;;;;;;5063373;28;20074;-74
2023/04/25 00:06:55;;;;;;;18.13;4.28;;;6.60;99.90;;;;;;5060388;28;20048;-75
2023/04/25 00:09:21;;;;;;;10.82;3.15;;;6.50;99.90;;;;;;5040466;28;20061;-74
2023/04/25 00:11:47;;;;;;;15.73;3.58;;;6.50;99.90;;;;;;5057698;28;20037;-74
2023/04/25 00:14:13;;;;;;;11.50;3.25;;;6.60;99.90;;;;;;5057433;28;20036;-75
2023/04/25 00:16:40;;;;;;;22.13;3.83;;;6.40;99.90;;;;;;5057956;28;20475;-75
2023/04/25 00:19:07;;;;;;;11.40;3.70;;;6.50;99.90;;;;;;5049284;28;20025;-74
2023/04/25 00:21:33;;;;;;;12.75;3.55;;;6.50;99.90;;;;;;5059888;28;20044;-75
2023/04/25 00:23:59;;;;;;;14.70;3.60;;;6.50;99.90;;;;;;5048247;28;20083;-75
2023/04/25 00:26:24;;;;;;;13.50;3.80;;;6.50;99.90;;;;;;5057583;28;20126;-75
2023/04/25 00:28:50;;;;;;;19.70;3.45;;;6.50;99.90;;;;;;5053299;28;20030;-74
2023/04/25 00:31:16;;;;;;;14.88;4.43;;;6.50;99.90;;;;;;5040536;28;20040;-75
2023/04/25 00:33:41;;;;;;;11.75;4.05;;;6.50;99.90;;;;;;5039112;28;20492;-75
2023/04/25 00:36:07;;;;;;;23.58;4.20;;;6.60;99.90;;;;;;5040296;28;20497;-74
2023/04/25 00:38:33;;;;;;;13.82;3.60;;;6.50;99.90;;;;;;5040145;28;20032;-74
2023/04/25 00:40:58;;;;;;;13.38;3.35;;;6.60;99.90;;;;;;5041824;28;20093;-74
2023/04/25 00:43:31;;;;;;;14.05;4.00;;;6.70;99.90;;;;;;5058889;28;20366;-75
2023/04/25 00:45:57;;;;;;;12.85;3.83;;;6.60;99.90;;;;;;5078805;28;20047;-75
2023/04/25 00:48:23;;;;;;;14.18;3.83;;;6.60;99.90;;;;;;5059156;28;20473;-74
2023/04/25 00:50:56;;;;;;;11.40;3.60;;;6.60;99.90;;;;;;5050367;28;20024;-74
2023/04/25 00:53:22;;;;;;;13.98;3.58;;;6.70;99.90;;;;;;5052796;28;20028;-75
2023/04/25 00:55:50;;;;;;;20.58;3.72;;;6.70;99.90;;;;;;5049650;28;20115;-74
2023/04/25 00:58:17;;;;;;;11.00;4.00;;;6.70;99.90;;;;;;5048072;28;20043;-74
2023/04/25 01:00:43;;;;;;;19.95;3.90;;;6.60;99.90;;;;;;5040350;28;20132;-75
2023/04/25 01:03:10;;;;;;;13.43;3.28;;;6.60;99.90;;;;;;5058682;28;20337;-74
2023/04/25 01:05:35;;;;;;;17.70;4.53;;;6.60;99.90;;;;;;5034344;28;20035;-75
2023/04/25 01:08:01;;;;;;;16.17;3.55;;;6.60;99.90;;;;;;5074822;28;20139;-73
2023/04/25 01:10:27;;;;;;;16.10;3.75;;;6.60;99.90;;;;;;5044515;28;20523;-74
2023/04/25 01:12:53;;;;;;;16.63;4.18;;;6.60;99.90;;;;;;5061897;28;20036;-75
2023/04/25 01:15:18;;;;;;;16.30;4.10;;;6.50;99.90;;;;;;5051793;28;20025;-74
2023/04/25 01:17:44;;;;;;;13.48;3.67;;;6.50;99.90;;;;;;5047100;28;20025;-75
2023/04/25 01:20:11;;;;;;;10.20;3.33;;;6.40;99.90;;;;;;5060644;28;20537;-75
2023/04/25 01:22:37;;;;;;;17.35;3.83;;;6.40;99.90;;;;;;5045701;28;20040;-76
2023/04/25 01:25:04;;;;;;;14.95;3.08;;;6.40;99.90;;;;;;5043505;28;20054;-75
2023/04/25 01:27:30;;;;;;;23.60;5.50;;;6.30;99.90;;;;;;5042426;28;20040;-75
2023/04/25 01:29:56;;;;;;;14.65;3.83;;;6.30;99.90;;;;;;5054455;28;20021;-74
2023/04/25 01:32:23;;;;;;;14.20;3.38;;;6.10;99.90;;;;;;5064727;28;20028;-75
2023/04/25 01:34:49;;;;;;;18.67;3.80;;;6.00;99.90;;;;;;5036931;28;20105;-74
2023/04/25 01:37:16;;;;;;;14.68;3.78;;;5.90;99.90;;;;;;5051935;28;20136;-74
2023/04/25 01:39:42;;;;;;;14.93;3.95;;;5.80;99.90;;;;;;5068376;28;20260;-75
2023/04/25 01:42:07;;;;;;;17.23;3.63;;;5.70;99.90;;;;;;5062535;28;20383;-74
2023/04/25 01:44:33;;;;;;;11.20;3.40;;;5.70;99.90;;;;;;5057501;28;20043;-74
2023/04/25 01:46:59;;;;;;;17.27;3.95;;;5.60;99.90;;;;;;5064269;28;20055;-75
2023/04/25 01:49:24;;;;;;;17.23;4.15;;;5.50;99.90;;;;;;5050311;28;20028;-74
2023/04/25 01:51:50;;;;;;;19.92;3.38;;;5.40;99.90;;;;;;5030831;28;20102;-75
2023/04/25 01:54:16;;;;;;;14.43;2.90;;;5.30;99.90;;;;;;5019827;28;20047;-75
2023/04/25 01:56:42;;;;;;;23.58;3.75;;;5.20;99.90;;;;;;5020026;28;20051;-75
2023/04/25 01:59:08;;;;;;;21.60;3.17;;;5.10;99.90;;;;;;5025913;28;20034;-75
2023/04/25 02:01:34;;;;;;;10.27;3.17;;;5.00;99.90;;;;;;5073237;28;20064;-75
2023/04/25 02:03:59;;;;;;;16.73;3.63;;;4.90;99.90;;;;;;5063037;28;20136;-75
2023/04/25 02:06:25;;;;;;;13.98;3.05;;;4.80;99.90;;;;;;5039726;28;20028;-75
2023/04/25 02:08:50;;;;;;;11.70;3.47;;;4.80;99.90;;;;;;5056348;28;20317;-75
2023/04/25 02:11:16;;;;;;;17.48;3.60;;;4.70;99.90;;;;;;5056824;28;20036;-75
2023/04/25 02:13:42;;;;;;;18.40;4.13;;;4.60;99.90;;;;;;5075272;28;20042;-74
2023/04/25 02:16:07;;;;;;;9.10;2.67;;;4.60;99.90;;;;;;5058795;28;20039;-75
2023/04/25 02:18:33;;;;;;;16.63;3.45;;;4.50;99.90;;;;;;5068837;28;20028;-75
2023/04/25 02:21:01;;;;;;;13.48;2.92;;;4.40;99.90;;;;;;5038636;28;20402;-75
2023/04/25 02:23:26;;;;;;;11.98;3.15;;;4.40;99.90;;;;;;5056559;28;20351;-74
2023/04/25 02:25:52;;;;;;;20.13;3.90;;;4.30;99.90;;;;;;5059048;28;20062;-74
2023/04/25 02:28:18;;;;;;;9.88;2.90;;;4.30;99.90;;;;;;5054041;28;20134;-74
2023/04/25 02:30:43;;;;;;;13.50;2.80;;;4.20;99.90;;;;;;5076895;28;20108;-74
2023/04/25 02:33:10;;;;;;;13.38;2.90;;;4.10;99.90;;;;;;5059791;28;20028;-74
2023/04/25 02:35:35;;;;;;;12.63;2.72;;;4.10;99.90;;;;;;5059606;28;20021;-74
2023/04/25 02:38:01;;;;;;;11.52;2.97;;;4.10;99.90;;;;;;5060438;28;20042;-75
2023/04/25 02:40:27;;;;;;;15.35;2.88;;;4.10;99.90;;;;;;5047001;28;20063;-75
2023/04/25 02:42:52;;;;;;;14.40;2.85;;;4.00;99.90;;;;;;5052783;28;20101;-75
2023/04/25 02:45:18;;;;;;;10.35;2.85;;;4.00;99.90;;;;;;5055534;28;20024;-74
2023/04/25 02:47:43;;;;;;;13.07;2.83;;;3.90;99.90;;;;;;5071347;28;20045;-75
2023/04/25 02:50:09;;;;;;;10.38;2.83;;;3.90;99.90;;;;;;5040885;28;20028;-75
2023/04/25 02:52:35;;;;;;;13.07;2.70;;;3.80;99.90;;;;;;5059336;28;20028;-75
2023/04/25 02:55:00;;;;;;;11.00;3.50;;;3.80;99.90;;;;;;5041447;28;20020;-75
2023/04/25 02:57:26;;;;;;;11.30;2.88;;;3.70;99.90;;;;;;5074069;28;20425;-75
2023/04/25 02:59:52;;;;;;;10.30;2.30;;;3.70;99.90;;;;;;5074353;28;20020;-75
2023/04/25 03:02:17;;;;;;;14.70;3.67;;;3.70;99.90;;;;;;5026067;28;20537;-74
2023/04/25 03:04:43;;;;;;;16.45;2.80;;;3.70;99.90;;;;;;5022312;28;20033;-74
2023/04/25 03:07:08;;;;;;;14.38;3.13;;;3.60;99.90;;;;;;5039547;28;20056;-75
2023/04/25 03:09:34;;;;;;;11.18;2.55;;;3.60;99.90;;;;;;5051506;28;20397;-75
2023/04/25 03:12:01;;;;;;;13.90;2.70;;;3.60;99.90;;;;;;5048862;28;20032;-75
2023/04/25 03:14:26;;;;;;;10.20;2.75;;;3.60;99.90;;;;;;5040272;28;20106;-74
2023/04/25 03:16:52;;;;;;;12.35;2.40;;;3.60;99.90;;;;;;5052084;28;20024;-74
2023/04/25 03:19:18;;;;;;;12.10;2.92;;;3.60;99.90;;;;;;5078327;28;20039;-75
2023/04/25 03:21:44;;;;;;;13.75;3.40;;;3.50;99.90;;;;;;5054418;28;20033;-74
2023/04/25 03:24:11;;;;;;;9.10;2.63;;;3.50;99.90;;;;;;5022569;28;20053;-74
2023/04/25 03:26:36;;;;;;;11.57;2.63;;;3.50;99.90;;;;;;5044829;28;20114;-74
2023/04/25 03:29:02;;;;;;;14.93;3.30;;;3.50;99.90;;;;;;5043991;28;20036;-74
2023/04/25 03:31:28;;;;;;;10.45;2.72;;;3.40;99.90;;;;;;5039973;28;20148;-75
2023/04/25 03:33:53;;;;;;;11.98;2.65;;;3.40;99.90;;;;;;5057646;28;20032;-75
2023/04/25 03:36:19;;;;;;;11.38;2.25;;;3.40;99.90;;;;;;5054357;28;20043;-75
2023/04/25 03:38:45;;;;;;;10.65;2.65;;;3.30;99.90;;;;;;5058784;28;20427;-75
2023/04/25 03:41:11;;;;;;;9.45;2.40;;;3.30;99.90;;;;;;5040783;28;20036;-75
2023/04/25 03:43:36;;;;;;;12.73;2.30;;;3.30;99.90;;;;;;5038773;28;20044;-75
2023/04/25 03:46:02;;;;;;;11.55;2.35;;;3.20;99.90;;;;;;5038554;28;20028;-75
2023/04/25 03:48:27;;;;;;;7.05;2.55;;;3.20;99.90;;;;;;5046019;28;20564;-75
2023/04/25 03:50:54;;;;;;;11.27;2.50;;;3.10;99.90;;;;;;5050866;28;20028;-75
2023/04/25 03:53:20;;;;;;;9.65;2.55;;;3.10;99.90;;;;;;5058476;28;20078;-74
2023/04/25 03:55:45;;;;;;;10.23;2.55;;;3.10;99.90;;;;;;5056745;28;20031;-75
2023/04/25 03:58:11;;;;;;;16.02;2.80;;;3.00;99.90;;;;;;5050256;28;20040;-74
2023/04/25 04:00:37;;;;;;;10.40;2.55;;;3.00;99.90;;;;;;5050595;28;20028;-74
2023/04/25 04:03:02;;;;;;;12.15;2.70;;;3.00;99.90;;;;;;5044417;28;20029;-75
2023/04/25 04:05:28;;;;;;;15.88;2.90;;;2.90;99.90;;;;;;5045686;28;20035;-75
2023/04/25 04:07:55;;;;;;;12.10;2.90;;;2.90;99.90;;;;;;5061218;28;20116;-74
2023/04/25 04:10:20;;;;;;;14.55;2.90;;;2.90;99.90;;;;;;5041566;28;20069;-75
2023/04/25 04:12:46;;;;;;;10.27;2.13;;;2.90;99.90;;;;;;5039384;28;20039;-75
2023/04/25 04:15:12;;;;;;;13.90;2.47;;;2.80;99.90;;;;;;5057725;28;20099;-74
2023/04/25 04:17:37;;;;;;;8.15;2.58;;;2.80;99.90;;;;;;5061853;28;20042;-75
2023/04/25 04:20:03;;;;;;;11.98;2.85;;;2.80;99.90;;;;;;5062338;28;20349;-74
2023/04/25 04:22:29;;;;;;;11.57;2.47;;;2.70;99.90;;;;;;5047622;28;20043;-75
2023/04/25 04:24:56;;;;;;;9.38;2.17;;;2.70;99.90;;;;;;5057704;28;20028;-74
2023/04/25 04:27:23;;;;;;;14.93;3.13;;;2.70;99.90;;;;;;5055614;28;20055;-75
2023/04/25 04:29:50;;;;;;;11.65;2.63;;;2.60;99.90;;;;;;5048175;28;20031;-75
2023/04/25 04:32:17;;;;;;;8.25;2.42;;;2.70;99.90;;;;;;5041764;28;20600;-74
2023/04/25 04:34:42;;;;;;;10.35;2.33;;;2.60;99.90;;;;;;5057120;28;20660;-75
2023/04/25 04:37:09;;;;;;;9.10;2.50;;;2.60;99.90;;;;;;5046503;28;20033;-75
2023/04/25 04:39:35;;;;;;;13.40;2.22;;;2.60;99.90;;;;;;5050243;28;20093;-75
2023/04/25 04:42:04;;;;;;;11.82;2.72;;;2.60;99.90;;;;;;5057225;28;20201;-75
2023/04/25 04:44:32;;;;;;;8.38;2.35;;;2.50;99.90;;;;;;5064273;28;20545;-75
2023/04/25 04:46:58;;;;;;;13.93;2.20;;;2.50;99.90;;;;;;5052916;28;21225;-75
2023/04/25 04:49:24;;;;;;;5.35;2.22;;;2.50;99.90;;;;;;5063110;28;20036;-75
2023/04/25 04:51:50;;;;;;;8.30;2.53;;;2.50;99.90;;;;;;5070654;28;20403;-75
2023/04/25 04:54:15;;;;;;;8.90;2.63;;;2.50;99.90;;;;;;5062035;28;20352;-75
2023/04/25 04:56:41;;;;;;;14.02;3.00;;;2.50;99.90;;;;;;5062056;28;20032;-75
2023/04/25 04:59:07;;;;;;;5.68;1.75;;;2.50;99.90;;;;;;5041013;28;20112;-75
2023/04/25 05:01:35;;;;;;;6.78;1.90;;;2.50;99.90;;;;;;5044209;28;20032;-75
2023/04/25 05:04:00;;;;;;;8.07;1.90;;;2.50;99.90;;;;;;5040127;28;20498;-75
2023/04/25 05:06:28;;;;;;;8.95;2.72;;;2.60;99.90;;;;;;5057459;28;20033;-74
2023/04/25 05:08:55;;;;;;;12.20;2.50;;;2.60;99.90;;;;;;5058554;28;20124;-74
2023/04/25 05:11:21;;;;;;;6.68;2.22;;;2.70;99.90;;;;;;5065491;28;20020;-75
2023/04/25 05:13:47;;;;;;;6.03;1.92;;;2.70;99.90;;;;;;5052049;28;20495;-75
2023/04/25 05:16:13;;;;;;;17.23;2.65;;;2.70;99.90;;;;;;5048563;28;20383;-75
2023/04/25 05:18:39;;;;;;;7.95;2.38;;;2.60;99.90;;;;;;5062293;28;20031;-75
2023/04/25 05:21:05;;;;;;;6.22;1.83;;;2.70;99.90;;;;;;5060072;28;20151;-75
2023/04/25 05:23:32;;;;;;;15.45;2.50;;;2.70;99.90;;;;;;5058920;28;20664;-75
2023/04/25 05:25:59;;;;;;;6.78;2.20;;;2.80;99.90;;;;;;5060424;28;20028;-74
2023/04/25 05:28:24;;;;;;;8.65;2.63;;;2.80;99.90;;;;;;5041689;28;20076;-75
2023/04/25 05:30:50;;;;;;;13.23;2.58;;;2.90;99.90;;;;;;5060120;28;20052;-75
2023/04/25 05:33:16;;;;;;;9.50;2.38;;;2.90;99.90;;;;;;5057363;28;20028;-75
2023/04/25 05:35:42;;;;;;;11.95;2.78;;;3.00;99.90;;;;;;5058539;28;20032;-74
2023/04/25 05:38:07;;;;;;;11.77;2.13;;;3.10;99.90;;;;;;5040556;28;20507;-75
2023/04/25 05:40:33;;;;;;;6.85;2.20;;;3.20;99.90;;;;;;5055946;28;20036;-75
2023/04/25 05:42:59;;;;;;;5.38;2.40;;;3.30;99.90;;;;;;5041167;28;20029;-76
2023/04/25 05:45:24;;;;;;;10.23;2.42;;;3.40;99.90;;;;;;5059994;28;20421;-74
2023/04/25 05:47:50;;;;;;;12.63;2.45;;;3.40;99.90;;;;;;5059148;28;20334;-74
2023/04/25 05:50:16;;;;;;;9.07;2.30;;;3.50;99.90;;;;;;5059273;28;20093;-75
2023/04/25 05:52:41;;;;;;;10.35;2.35;;;3.60;99.90;;;;;;5052015;28;20038;-75
2023/04/25 05:55:07;;;;;;;6.28;2.33;;;3.60;99.90;;;;;;5062648;28;20042;-77
2023/04/25 05:57:33;;;;;;;11.25;2.70;;;3.90;99.90;;;;;;5058202;28;20218;-76
2023/04/25 05:59:58;;;;;;;8.32;2.13;;;4.10;99.90;;;;;;5059361;28;20052;-76
2023/04/25 06:02:24;;;;;;;10.05;2.15;;;4.10;99.90;;;;;;5050579;28;20101;-77
2023/04/25 06:04:51;;;;;;;7.50;2.20;;;4.30;99.90;;;;;;5059640;28;20031;-76
2023/04/25 06:07:17;;;;;;;18.63;4.68;;;4.30;99.90;;;;;;5054743;28;20078;-77
2023/04/25 06:09:43;;;;;;;19.75;4.63;;;4.40;99.90;;;;;;5046242;28;20043;-76
2023/04/25 06:12:09;;;;;;;16.58;3.05;;;4.30;99.90;;;;;;5041505;28;20166;-77
2023/04/25 06:14:34;;;;;;;11.95;2.95;;;4.50;99.90;;;;;;5042560;28;20127;-77
2023/04/25 06:17:06;;;;;;;9.80;1.98;;;4.90;99.90;;;;;;5040896;28;20024;-77
2023/04/25 06:19:32;;;;;;;6.78;2.35;;;5.70;99.90;;;;;;5054394;28;20031;-78
2023/04/25 06:21:58;;;;;;;9.80;2.08;;;6.60;99.90;;;;;;5047779;28;20032;-80
2023/04/25 06:24:24;;;;;;;6.63;1.90;;;6.80;99.90;;;;;;5068033;28;20459;-76
2023/04/25 06:26:49;;;;;;;9.88;1.92;;;7.00;99.90;;;;;;5041575;28;20037;-80
2023/04/25 06:29:15;;;;;;;11.63;2.03;;;7.20;99.90;;;;;;5040750;28;20044;-78
2023/04/25 06:31:41;;;;;;;10.48;1.70;;;7.30;99.90;;;;;;5040980;28;20032;-77
2023/04/25 06:34:06;;;;;;;14.13;2.67;;;7.10;97.70;;;;;;5059038;28;20036;-77
2023/04/25 06:36:32;;;;;;;10.80;2.47;;;7.30;99.90;;;;;;5053527;28;20510;-75
2023/04/25 06:38:57;;;;;;;10.20;2.30;;;7.50;98.30;;;;;;5074350;28;20039;-78
2023/04/25 06:41:23;;;;;;;22.48;10.18;;;7.40;96.80;;;;;;5051067;28;20064;-78
2023/04/25 06:43:48;;;;;;;7.45;2.00;;;8.00;97.20;;;;;;5050868;28;20573;-78
2023/04/25 06:46:14;;;;;;;9.23;1.77;;;7.90;96.00;;;;;;5039922;28;20032;-77
2023/04/25 06:48:40;;;;;;;4.53;1.70;;;8.20;96.70;;;;;;5039354;28;20090;-77
2023/04/25 06:51:05;;;;;;;11.88;2.40;;;8.40;92.20;;;;;;5064389;28;20024;-77
2023/04/25 06:53:31;;;;;;;7.72;1.90;;;8.40;92.50;;;;;;5061468;28;20136;-77
2023/04/25 06:55:56;;;;;;;6.63;1.65;;;9.10;93.00;;;;;;5052618;28;20043;-78
2023/04/25 06:58:22;;;;;;;8.40;2.15;;;9.20;89.60;;;;;;5037417;28;20113;-77
2023/04/25 07:00:48;;;;;;;11.75;1.88;;;9.20;91.00;;;;;;5040152;28;20455;-77
2023/04/25 07:03:13;;;;;;;8.18;1.50;;;9.50;88.00;;;;;;5055703;28;20476;-77
2023/04/25 07:05:39;;;;;;;9.05;1.70;;;9.90;84.90;;;;;;5038932;28;20025;-77
2023/04/25 07:08:05;;;;;;;9.20;1.73;;;9.90;81.30;;;;;;5041670;28;20055;-77
2023/04/25 07:10:30;;;;;;;12.40;1.73;;;10.10;80.80;;;;;;5040635;28;20044;-77
2023/04/25 07:12:56;;;;;;;8.25;2.08;;;10.10;79.10;;;;;;5041508;28;20081;-78
2023/04/25 07:15:21;;;;;;;11.57;2.22;;;9.80;79.80;;;;;;5041033;28;20167;-78
2023/04/25 07:17:47;;;;;;;6.55;1.50;;;10.30;85.40;;;;;;5056049;28;20518;-77
2023/04/25 07:20:13;;;;;;;8.23;2.13;;;10.60;79.40;;;;;;5040006;28;20164;-77
2023/04/25 07:22:39;;;;;;;5.82;1.88;;;11.10;80.40;;;;;;5038845;28;20957;-78
2023/04/25 07:25:05;;;;;;;7.25;1.42;;;11.00;75.80;;;;;;5043645;28;20125;-76
2023/04/25 07:27:31;;;;;;;5.18;1.45;;;10.50;76.40;;;;;;5065827;28;20032;-77
2023/04/25 07:29:57;;;;;;;7.38;1.42;;;11.10;79.30;;;;;;5035660;28;20332;-77
2023/04/25 07:32:23;;;;;;;9.70;2.88;;;11.90;69.10;;;;;;5038499;28;20105;-78
2023/04/25 07:34:49;;;;;;;9.70;1.73;;;12.50;61.20;;;;;;5040111;28;20578;-77
2023/04/25 07:37:15;;;;;;;7.32;1.80;;;12.70;61.90;;;;;;5057172;28;20050;-77
2023/04/25 07:39:41;;;;;;;7.18;1.40;;;13.00;58.00;;;;;;5038665;28;20577;-78
2023/04/25 07:42:10;;;;;;;12.82;1.95;;;12.80;55.00;;;;;;5036779;28;20839;-78
2023/04/25 07:44:38;;;;;;;7.30;1.85;;;13.70;54.90;;;;;;5036371;28;20043;-78
2023/04/25 07:47:08;;;;;;;8.60;1.70;;;14.70;50.40;;;;;;5033215;28;20260;-76
2023/04/25 07:49:35;;;;;;;5.38;1.77;;;17.10;48.70;;;;;;5047841;28;20054;-78
2023/04/25 07:52:01;;;;;;;6.47;1.55;;;20.00;39.80;;;;;;5044701;28;20942;-76
2023/04/25 07:54:27;;;;;;;6.50;1.50;;;22.10;36.20;;;;;;5023775;28;20177;-77
2023/04/25 07:56:53;;;;;;;10.23;1.58;;;24.10;33.10;;;;;;5041883;28;20078;-80
2023/04/25 07:59:19;;;;;;;8.60;1.50;;;26.10;30.40;;;;;;5045197;28;20028;-75
2023/04/25 08:01:44;;;;;;;7.13;1.55;;;27.60;28.10;;;;;;5036456;28;20326;-76
2023/04/25 08:04:10;;;;;;;6.10;1.40;;;28.40;27.40;;;;;;5056154;28;20085;-75
2023/04/25 08:06:36;;;;;;;4.95;1.20;;;27.70;27.30;;;;;;5031471;28;20408;-76
2023/04/25 08:09:02;;;;;;;7.20;1.25;;;28.30;26.10;;;;;;5031814;28;20407;-76
2023/04/25 08:11:28;;;;;;;7.20;1.33;;;29.30;27.20;;;;;;5025023;28;20032;-75
2023/04/25 08:13:54;;;;;;;5.18;1.60;;;30.40;26.50;;;;;;5029883;28;20039;-75
2023/04/25 08:16:20;;;;;;;6.22;1.20;;;29.80;23.50;;;;;;5031434;28;20051;-76
2023/04/25 08:18:46;;;;;;;6.72;1.50;;;30.30;25.10;;;;;;5030459;28;20534;-76
2023/04/25 08:21:12;;;;;;;7.97;1.50;;;31.00;26.00;;;;;;5028787;28;20093;-76
2023/04/25 08:23:38;;;;;;;5.78;1.40;;;30.60;26.20;;;;;;5029477;28;20605;-76
2023/04/25 08:26:04;;;;;;;7.72;2.97;;;31.80;25.20;;;;;;5025030;28;20086;-75
2023/04/25 08:28:30;;;;;;;8.63;1.60;;;32.20;23.90;;;;;;5028341;28;20040;-76
2023/04/25 08:30:56;;;;;;;7.93;1.70;;;32.50;24.60;;;;;;5039770;28;20179;-77
2023/04/25 08:33:22;;;;;;;8.90;1.48;;;32.30;24.80;;;;;;5022221;28;20238;-74
2023/04/25 08:35:47;;;;;;;6.70;1.33;;;32.20;22.20;;;;;;5045325;28;20696;-76
2023/04/25 08:38:13;;;;;;;5.20;1.60;;;30.50;23.20;;;;;;5048509;28;20047;-77
2023/04/25 08:40:39;;;;;;;6.70;1.70;;;30.60;24.10;;;;;;5035240;28;20040;-77
2023/04/25 08:43:11;;;;;;;4.63;1.13;;;30.10;23.30;;;;;;5038660;28;20449;-78
2023/04/25 08:45:40;;;;;;;9.82;1.30;;;30.20;23.40;;;;;;5041369;28;20054;-77
2023/04/25 08:48:10;;;;;;;5.78;1.15;;;28.60;24.50;;;;;;5043357;28;20414;-77
2023/04/25 08:50:44;;;;;;;5.13;1.20;;;28.10;24.60;;;;;;5040662;28;20161;-76
2023/04/25 08:53:18;;;;;;;8.45;1.52;;;29.00;25.10;;;;;;5063846;28;20028;-77
2023/04/25 08:55:45;;;;;;;3.83;1.10;;;28.60;23.50;;;;;;5047643;28;20087;-77
2023/04/25 08:58:11;;;;;;;5.78;1.30;;;27.90;24.50;;;;;;5036897;28;20036;-78
2023/04/25 09:00:37;;;;;;;5.80;1.20;;;29.50;25.20;;;;;;5034670;28;20047;-77
2023/04/25 09:03:03;;;;;;;6.47;1.50;;;29.90;23.20;;;;;;5044338;28;20051;-77
2023/04/25 09:05:29;;;;;;;4.10;1.30;;;28.50;22.00;;;;;;5035619;28;20036;-77
2023/04/25 09:07:56;;;;;;;7.28;1.27;;;27.50;24.40;;;;;;5038697;28;20052;-77
2023/04/25 09:10:22;;;;;;;3.97;1.25;;;27.60;24.50;;;;;;5055880;28;20102;-77
2023/04/25 09:13:12;;;;;;;3.75;1.20;;;25.90;24.20;;;;;;5040040;28;20503;-78
2023/04/25 09:15:52;;;;;;;3.63;1.23;;;27.00;25.20;;;;;;5037787;28;20445;-77
2023/04/25 09:18:33;;;;;;;5.40;1.30;;;27.70;23.90;;;;;;5035606;28;20090;-78
2023/04/25 09:21:05;;;;;;;;;;;27.20;23.60;;;;;;5036598;28;20618;-77
2023/04/25 09:23:43;;;;;;;6.50;0.98;;;26.80;21.90;;;;;;5032855;28;19921;-77
2023/04/25 09:26:09;;;;;;;6.82;1.10;;;26.40;24.10;;;;;;5035660;28;20024;-77
2023/04/25 09:28:35;;;;;;;4.38;1.02;;;27.20;25.30;;;;;;5038443;28;20372;-77
2023/04/25 09:31:01;;;;;;;6.13;1.10;;;28.50;24.40;;;;;;5043374;28;20024;-77
2023/04/25 09:33:32;;;;;;;4.47;1.02;;;29.20;24.60;;;;;;5055216;28;20033;-77
2023/04/25 09:36:07;;;;;;;8.57;1.17;;;30.60;21.50;;;;;;5040786;28;20078;-77
2023/04/25 09:38:43;;;;;;;6.65;1.42;;;30.70;22.50;;;;;;5039437;28;20106;-78
2023/04/25 09:41:10;;;;;;;4.43;1.00;;;30.60;20.30;;;;;;5056787;28;20612;-76
2023/04/25 09:43:36;;;;;;;5.65;1.20;;;28.60;20.90;;;;;;5071494;28;20106;-77
2023/04/25 09:46:02;;;;;;;5.57;1.00;;;27.80;22.90;;;;;;5060828;28;20115;-77
2023/04/25 09:48:28;;;;;;;5.35;1.20;;;24.60;23.80;;;;;;5072052;28;20036;-77
2023/04/25 09:51:10;;;;;;;4.13;1.20;;;23.30;27.50;;;;;;5054123;28;20032;-77
2023/04/25 09:53:41;;;;;;;5.25;0.85;;;20.80;28.10;;;;;;5061165;28;20499;-77
2023/04/25 09:56:09;;;;;;;5.20;1.00;;;20.30;28.30;;;;;;5057489;28;20382;-76
2023/04/25 09:58:36;;;;;;;6.35;1.20;;;21.70;29.60;;;;;;5057290;28;20399;-77
2023/04/25 10:01:05;;;;;;;6.43;1.20;;;23.10;26.60;;;;;;5054210;28;20032;-76
2023/04/25 10:03:33;;;;;;;3.30;0.90;;;21.60;25.10;;;;;;5037658;28;20517;-77
2023/04/25 10:06:06;;;;;;;4.00;0.95;;;20.80;26.60;;;;;;5049423;28;20130;-76
2023/04/25 10:08:36;;;;;;;3.67;0.82;;;21.10;30.30;;;;;;5056288;28;20123;-77
2023/04/25 10:11:06;;;;;;;5.07;0.88;;;20.60;28.70;;;;;;5042208;28;20104;-77
2023/04/25 10:13:34;;;;;;;2.70;0.93;;;20.20;32.80;;;;;;5038513;28;20028;-77
2023/04/25 10:16:02;;;;;;;5.72;1.23;;;19.50;31.20;;;;;;5038690;28;20367;-77
2023/04/25 10:18:29;;;;;;;5.70;1.20;;;21.30;27.40;;;;;;5042076;28;20039;-76
2023/04/25 10:20:56;;;;;;;6.20;1.02;;;21.60;26.90;;;;;;5031962;28;20024;-76
2023/04/25 10:23:23;;;;;;;6.57;1.10;;;22.40;27.70;;;;;;5035382;28;20061;-76
2023/04/25 10:25:53;;;;;;;3.25;0.82;;;23.10;28.10;;;;;;5038263;28;20411;-76
2023/04/25 10:28:19;;;;;;;7.35;1.10;;;22.00;28.70;;;;;;5037797;28;20047;-76
2023/04/25 10:30:57;;;;;;;3.05;0.80;;;24.10;28.30;;;;;;5060937;28;20048;-76
2023/04/25 10:33:34;;;;;;;4.72;1.00;;;26.40;24.80;;;;;;5049278;28;20466;-77
2023/04/25 10:36:12;;;;;;;4.30;0.93;;;29.10;22.70;;;;;;5040203;28;20252;-77
2023/04/25 10:38:38;;;;;;;2.72;0.70;;;30.10;22.40;;;;;;5058232;28;20112;-76
2023/04/25 10:41:08;;;;;;;3.22;0.95;;;28.20;21.30;;;;;;5048324;28;20043;-76
2023/04/25 10:43:38;;;;;;;9.70;1.20;;;25.60;23.20;;;;;;5062545;28;20024;-77
2023/04/25 10:46:13;;;;;;;3.28;0.80;;;24.00;26.50;;;;;;5037788;28;20574;-75
2023/04/25 10:48:54;;;;;;;2.55;0.85;;;23.90;25.40;;;;;;5052535;28;20119;-77
2023/04/25 10:51:41;;;;;;;2.60;0.65;;;24.80;25.00;;;;;;5033991;28;20352;-76
2023/04/25 10:54:08;;;;;;;6.28;1.02;;;26.30;23.10;;;;;;5044806;28;20032;-77
2023/04/25 10:56:41;;;;;;;4.55;1.10;;;27.50;25.10;;;;;;5049413;28;20043;-77
2023/04/25 10:59:20;;;;;;;2.95;0.98;;;29.20;20.80;;;;;;5042576;28;20552;-75
2023/04/25 11:01:54;;;;;;;3.47;0.85;;;29.30;19.40;;;;;;5030497;28;20572;-76
2023/04/25 11:04:30;;;;;;;4.53;0.90;;;28.90;21.90;;;;;;5034120;28;20693;-77
2023/04/25 11:07:02;;;;;;;4.38;1.30;;;26.90;21.40;;;;;;5031060;28;20400;-76
2023/04/25 11:09:28;;;;;;;5.90;1.00;;;25.00;23.40;;;;;;5036647;28;20179;-76
2023/04/25 11:11:59;;;;;;;3.80;1.10;;;24.70;24.50;;;;;;5042168;28;20039;-76
2023/04/25 11:14:25;;;;;;;5.07;0.80;;;25.30;23.30;;;;;;5031375;28;20059;-76
2023/04/25 11:16:58;;;;;;;5.13;0.90;;;26.30;24.40;;;;;;5034332;28;20053;-77
2023/04/25 11:19:25;;;;;;;6.85;0.98;;;25.40;23.50;;;;;;5033689;28;20636;-76
2023/04/25 11:21:54;;;;;;;5.38;0.95;;;27.00;22.70;;;;;;5030097;28;20352;-76
2023/04/25 11:24:25;;;;;;;6.00;1.30;;;27.60;23.80;;;;;;5035605;28;20087;-76
2023/04/25 11:26:50;;;;;;;3.28;1.13;;;27.30;21.40;;;;;;5035911;28;20124;-76
2023/04/25 11:29:16;;;;;;;3.38;0.90;;;25.50;22.30;;;;;;5045142;28;20082;-75
2023/04/25 11:31:46;;;;;;;4.30;1.25;;;24.20;23.90;;;;;;5056959;28;20185;-75
2023/04/25 11:34:17;;;;;;;3.85;1.20;;;23.20;24.50;;;;;;5041278;28;20033;-76
2023/04/25 11:36:44;;;;;;;4.30;1.33;;;20.80;26.60;;;;;;5039953;28;20938;-76
2023/04/25 11:39:10;;;;;;;5.18;1.15;;;19.90;31.50;;;;;;5038103;28;20068;-73
2023/04/25 11:41:37;;;;;;;5.20;1.17;;;19.70;30.60;;;;;;5065123;28;20024;-75
2023/04/25 11:44:04;;;;;;;2.55;1.27;;;19.90;29.30;;;;;;5045595;28;20028;-75
2023/04/25 11:46:30;;;;;;;3.05;1.08;;;19.20;30.50;;;;;;5040741;28;20032;-75
2023/04/25 11:48:57;;;;;;;7.10;1.10;;;19.60;32.50;;;;;;5034018;28;20934;-76
2023/04/25 11:51:22;;;;;;;4.78;1.50;;;20.10;32.00;;;;;;5036138;28;20037;-76
2023/04/25 11:53:48;;;;;;;2.60;1.10;;;20.50;29.80;;;;;;5051086;28;20097;-76
2023/04/25 11:56:14;;;;;;;2.28;1.00;;;20.40;30.70;;;;;;5037056;28;20029;-75
2023/04/25 11:59:01;;;;;;;3.45;1.00;;;20.80;28.60;;;;;;5041371;28;20069;-75
2023/04/25 12:01:32;;;;;;;7.68;1.27;;;20.70;30.40;;;;;;5063031;28;20033;-75
2023/04/25 12:03:58;;;;;;;4.97;1.17;;;19.90;29.20;;;;;;5033942;28;20444;-76
2023/04/25 12:06:28;;;;;;;5.47;1.33;;;19.70;29.60;;;;;;5036299;28;20132;-76
2023/04/25 12:09:04;;;;;;;5.88;1.38;;;18.30;28.20;;;;;;5035253;28;20044;-76
2023/04/25 12:11:40;;;;;;;4.10;1.30;;;18.70;30.50;;;;;;5053113;28;20028;-75
2023/04/25 12:14:06;;;;;;;5.13;1.33;;;18.30;30.80;;;;;;5034370;28;20533;-75
2023/04/25 12:16:42;;;;;;;3.83;1.00;;;18.90;30.80;;;;;;5036252;28;20025;-76
2023/04/25 12:19:08;;;;;;;3.17;1.10;;;19.90;29.00;;;;;;5037208;28;20193;-76
2023/04/25 12:21:34;;;;;;;4.85;1.15;;;21.10;29.60;;;;;;5037436;28;20032;-76
2023/04/25 12:24:16;;;;;;;3.72;1.25;;;21.70;28.20;;;;;;5047152;28;20083;-76
2023/04/25 12:27:02;;;;;;;3.35;1.00;;;21.60;30.10;;;;;;5053109;28;20157;-75
2023/04/25 12:29:30;;;;;;;5.18;1.27;;;21.90;30.70;;;;;;5039538;28;20450;-75
2023/04/25 12:31:56;;;;;;;6.50;1.60;;;21.20;28.90;;;;;;5053356;28;20021;-75
2023/04/25 12:34:22;;;;;;;5.78;1.48;;;20.60;29.40;;;;;;5039000;28;20399;-75
2023/04/25 12:36:49;;;;;;;3.05;1.13;;;18.70;30.50;;;;;;5037814;28;20078;-76
2023/04/25 12:39:19;;;;;;;7.43;1.20;;;18.20;32.30;;;;;;5057761;28;20028;-76
2023/04/25 12:41:46;;;;;;;4.60;1.30;;;17.40;33.80;;;;;;5039086;28;20543;-76
2023/04/25 12:44:12;;;;;;;3.42;1.10;;;16.90;35.60;;;;;;5037358;28;20038;-75
2023/04/25 12:46:39;;;;;;;5.95;1.20;;;15.90;35.10;;;;;;5049441;28;20461;-75
2023/04/25 12:49:07;;;;;;;6.63;1.85;;;16.90;36.60;;;;;;5034721;28;20535;-75